sensor_id;sensor_type;location;lat;lon;timestamp;temperature;humidity
27978;DHT22;15314;49.248;6.968;2023-12-20T00:00:10;5.60;99.90
27978;DHT22;15314;49.248;6.968;2023-12-20T00:01:11;5.60;99.90
27978;DHT22;15314;49.248;6.968;2023-12-20T00:02:12;5.60;99.90
27978;DHT22;15314;49.248;6.968;2023-12-20T00:03:12;5.60;99.90
27978;DHT22;15314;49.248;6.968;2023-12-20T00:04:13;5.70;99.90
27978;DHT22;15314;49.248;6.968;2023-12-20T00:05:14;5.60;99.90
27978;DHT22;15314;49.248;6.968;2023-12-20T00:06:15;5.60;99.90
27978;DHT22;15314;49.248;6.968;2023-12-20T00:07:15;5.60;99.90
27978;DHT22;15314;49.248;6.968;2023-12-20T00:08:16;5.70;99.90
27978;DHT22;15314;49.248;6.968;2023-12-20T00:09:17;5.70;99.90
27978;DHT22;15314;49.248;6.968;2023-12-20T00:10:18;5.80;99.90
27978;DHT22;15314;49.248;6.968;2023-12-20T00:11:18;5.80;99.90
27978;DHT22;15314;49.248;6.968;2023-12-20T00:12:19;5.90;99.90
27978;DHT22;15314;49.248;6.968;2023-12-20T00:13:19;6.00;99.90
27978;DHT22;15314;49.248;6.968;2023-12-20T00:14:20;6.00;99.90
27978;DHT22;15314;49.248;6.968;2023-12-20T00:15:21;6.00;99.90
27978;DHT22;15314;49.248;6.968;2023-12-20T00:16:21;6.00;99.90
27978;DHT22;15314;49.248;6.968;2023-12-20T00:17:22;6.00;99.90
27978;DHT22;15314;49.248;6.968;2023-12-20T00:18:23;6.00;99.90
27978;DHT22;15314;49.248;6.968;2023-12-20T00:19:24;6.00;99.90
27978;DHT22;15314;49.248;6.968;2023-12-20T00:20:24;6.10;99.90
27978;DHT22;15314;49.248;6.968;2023-12-20T00:21:25;6.00;99.90
27978;DHT22;15314;49.248;6.968;2023-12-20T00:22:26;6.00;99.90
27978;DHT22;15314;49.248;6.968;2023-12-20T00:23:26;6.00;99.90
27978;DHT22;15314;49.248;6.968;2023-12-20T00:24:27;6.00;99.90
27978;DHT22;15314;49.248;6.968;2023-12-20T00:25:28;6.10;99.90
27978;DHT22;15314;49.248;6.968;2023-12-20T00:26:28;6.00;99.90
27978;DHT22;15314;49.248;6.968;2023-12-20T00:27:29;6.10;99.90
27978;DHT22;15314;49.248;6.968;2023-12-20T00:28:30;6.20;99.90
27978;DHT22;15314;49.248;6.968;2023-12-20T00:29:30;6.20;99.90
27978;DHT22;15314;49.248;6.968;2023-12-20T00:30:31;6.30;99.90
27978;DHT22;15314;49.248;6.968;2023-12-20T00:31:32;6.30;99.90
27978;DHT22;15314;49.248;6.968;2023-12-20T00:32:32;6.30;99.90
27978;DHT22;15314;49.248;6.968;2023-12-20T00:33:33;6.30;99.90
27978;DHT22;15314;49.248;6.968;2023-12-20T00:34:34;6.30;99.90
27978;DHT22;15314;49.248;6.968;2023-12-20T00:35:34;6.40;99.90
27978;DHT22;15314;49.248;6.968;2023-12-20T00:36:35;6.40;99.90
27978;DHT22;15314;49.248;6.968;2023-12-20T00:37:36;6.30;99.90
27978;DHT22;15314;49.248;6.968;2023-12-20T00:38:36;6.30;99.90
27978;DHT22;15314;49.248;6.968;2023-12-20T00:39:37;6.20;99.90
27978;DHT22;15314;49.248;6.968;2023-12-20T00:40:38;6.30;99.90
27978;DHT22;15314;49.248;6.968;2023-12-20T00:41:38;6.30;99.90
27978;DHT22;15314;49.248;6.968;2023-12-20T00:42:39;6.30;99.90
27978;DHT22;15314;49.248;6.968;2023-12-20T00:43:40;6.30;99.90
27978;DHT22;15314;49.248;6.968;2023-12-20T00:44:40;6.40;99.90
27978;DHT22;15314;49.248;6.968;2023-12-20T00:45:41;6.40;99.90
27978;DHT22;15314;49.248;6.968;2023-12-20T00:46:42;6.40;99.90
27978;DHT22;15314;49.248;6.968;2023-12-20T00:47:42;6.40;99.90
27978;DHT22;15314;49.248;6.968;2023-12-20T00:48:43;6.40;99.90
27978;DHT22;15314;49.248;6.968;2023-12-20T00:49:45;6.40;99.90
27978;DHT22;15314;49.248;6.968;2023-12-20T00:50:46;6.20;99.90
27978;DHT22;15314;49.248;6.968;2023-12-20T00:51:47;6.20;99.90
27978;DHT22;15314;49.248;6.968;2023-12-20T00:52:48;6.10;99.90
27978;DHT22;15314;49.248;6.968;2023-12-20T00:53:50;6.10;99.90
27978;DHT22;15314;49.248;6.968;2023-12-20T00:54:54;6.00;99.90
27978;DHT22;15314;49.248;6.968;2023-12-20T00:55:55;5.90;99.90
27978;DHT22;15314;49.248;6.968;2023-12-20T00:56:56;5.80;99.90
27978;DHT22;15314;49.248;6.968;2023-12-20T00:57:56;5.80;99.90
27978;DHT22;15314;49.248;6.968;2023-12-20T00:58:57;5.80;99.90
27978;DHT22;15314;49.248;6.968;2023-12-20T00:59:58;5.80;99.90
27978;DHT22;15314;49.248;6.968;2023-12-20T01:00:58;5.80;99.90
27978;DHT22;15314;49.248;6.968;2023-12-20T01:01:59;5.70;99.90
27978;DHT22;15314;49.248;6.968;2023-12-20T01:03:00;5.70;99.90
27978;DHT22;15314;49.248;6.968;2023-12-20T01:04:00;5.80;99.90
27978;DHT22;15314;49.248;6.968;2023-12-20T01:05:01;5.80;99.90
27978;DHT22;15314;49.248;6.968;2023-12-20T01:06:03;5.90;99.90
27978;DHT22;15314;49.248;6.968;2023-12-20T01:07:05;6.00;99.90
27978;DHT22;15314;49.248;6.968;2023-12-20T01:08:06;6.00;99.90
27978;DHT22;15314;49.248;6.968;2023-12-20T01:09:07;6.00;99.90
27978;DHT22;15314;49.248;6.968;2023-12-20T01:10:07;6.10;99.90
27978;DHT22;15314;49.248;6.968;2023-12-20T01:11:08;6.10;99.90
27978;DHT22;15314;49.248;6.968;2023-12-20T01:12:09;6.20;99.90
27978;DHT22;15314;49.248;6.968;2023-12-20T01:13:09;6.20;99.90
27978;DHT22;15314;49.248;6.968;2023-12-20T01:14:10;6.30;99.90
27978;DHT22;15314;49.248;6.968;2023-12-20T01:15:11;6.30;99.90
27978;DHT22;15314;49.248;6.968;2023-12-20T01:16:12;6.40;99.90
27978;DHT22;15314;49.248;6.968;2023-12-20T01:17:13;6.40;99.90
27978;DHT22;15314;49.248;6.968;2023-12-20T01:18:14;6.50;99.90
27978;DHT22;15314;49.248;6.968;2023-12-20T01:19:14;6.50;99.90
27978;DHT22;15314;49.248;6.968;2023-12-20T01:20:15;6.50;99.90
27978;DHT22;15314;49.248;6.968;2023-12-20T01:21:16;6.60;99.90
27978;DHT22;15314;49.248;6.968;2023-12-20T01:22:16;6.60;99.90
27978;DHT22;15314;49.248;6.968;2023-12-20T01:23:17;6.60;99.90
27978;DHT22;15314;49.248;6.968;2023-12-20T01:24:17;6.60;99.90
27978;DHT22;15314;49.248;6.968;2023-12-20T01:25:18;6.60;99.90
27978;DHT22;15314;49.248;6.968;2023-12-20T01:26:19;6.70;99.90
27978;DHT22;15314;49.248;6.968;2023-12-20T01:27:20;6.70;99.90
27978;DHT22;15314;49.248;6.968;2023-12-20T01:28:20;6.70;99.90
27978;DHT22;15314;49.248;6.968;2023-12-20T01:29:21;6.70;99.90
27978;DHT22;15314;49.248;6.968;2023-12-20T01:30:21;6.70;99.90
27978;DHT22;15314;49.248;6.968;2023-12-20T01:31:22;6.80;99.90
27978;DHT22;15314;49.248;6.968;2023-12-20T01:32:23;6.60;99.90
27978;DHT22;15314;49.248;6.968;2023-12-20T01:33:24;6.60;99.90
27978;DHT22;15314;49.248;6.968;2023-12-20T01:34:24;6.60;99.90
27978;DHT22;15314;49.248;6.968;2023-12-20T01:35:25;6.50;99.90
27978;DHT22;15314;49.248;6.968;2023-12-20T01:36:25;6.50;99.90
27978;DHT22;15314;49.248;6.968;2023-12-20T01:37:26;6.60;99.90
27978;DHT22;15314;49.248;6.968;2023-12-20T01:38:29;6.60;99.90
27978;DHT22;15314;49.248;6.968;2023-12-20T01:39:30;6.60;99.90
27978;DHT22;15314;49.248;6.968;2023-12-20T01:40:30;6.60;99.90
27978;DHT22;15314;49.248;6.968;2023-12-20T01:41:31;6.60;99.90
27978;DHT22;15314;49.248;6.968;2023-12-20T01:42:32;6.50;99.90
27978;DHT22;15314;49.248;6.968;2023-12-20T01:43:32;6.60;99.90
27978;DHT22;15314;49.248;6.968;2023-12-20T01:44:33;6.60;99.90
27978;DHT22;15314;49.248;6.968;2023-12-20T01:45:34;6.50;99.90
27978;DHT22;15314;49.248;6.968;2023-12-20T01:46:35;6.50;99.90
27978;DHT22;15314;49.248;6.968;2023-12-20T01:47:36;6.50;99.90
27978;DHT22;15314;49.248;6.968;2023-12-20T01:48:36;6.50;99.90
27978;DHT22;15314;49.248;6.968;2023-12-20T01:49:38;6.50;99.90
27978;DHT22;15314;49.248;6.968;2023-12-20T01:50:39;6.60;99.90
27978;DHT22;15314;49.248;6.968;2023-12-20T01:51:40;6.50;99.90
27978;DHT22;15314;49.248;6.968;2023-12-20T01:52:42;6.50;99.90
27978;DHT22;15314;49.248;6.968;2023-12-20T01:53:44;6.50;99.90
27978;DHT22;15314;49.248;6.968;2023-12-20T01:54:45;6.50;99.90
27978;DHT22;15314;49.248;6.968;2023-12-20T01:55:46;6.50;99.90
27978;DHT22;15314;49.248;6.968;2023-12-20T01:56:49;6.50;99.90
27978;DHT22;15314;49.248;6.968;2023-12-20T01:57:51;6.50;99.90
27978;DHT22;15314;49.248;6.968;2023-12-20T01:58:52;6.50;99.90
27978;DHT22;15314;49.248;6.968;2023-12-20T01:59:52;6.50;99.90
27978;DHT22;15314;49.248;6.968;2023-12-20T02:00:54;6.60;99.90
27978;DHT22;15314;49.248;6.968;2023-12-20T02:01:55;6.50;99.90
27978;DHT22;15314;49.248;6.968;2023-12-20T02:03:00;6.60;99.90
27978;DHT22;15314;49.248;6.968;2023-12-20T02:04:02;6.70;99.90
27978;DHT22;15314;49.248;6.968;2023-12-20T02:05:03;6.70;99.90
27978;DHT22;15314;49.248;6.968;2023-12-20T02:06:04;6.80;99.90
27978;DHT22;15314;49.248;6.968;2023-12-20T02:07:06;6.80;99.90
27978;DHT22;15314;49.248;6.968;2023-12-20T02:08:07;6.80;99.90
27978;DHT22;15314;49.248;6.968;2023-12-20T02:09:08;6.80;99.90
27978;DHT22;15314;49.248;6.968;2023-12-20T02:10:09;6.90;99.90
27978;DHT22;15314;49.248;6.968;2023-12-20T02:11:10;6.90;99.90
27978;DHT22;15314;49.248;6.968;2023-12-20T02:12:11;7.00;99.90
27978;DHT22;15314;49.248;6.968;2023-12-20T02:13:11;7.00;99.90
27978;DHT22;15314;49.248;6.968;2023-12-20T02:14:12;7.00;99.90
27978;DHT22;15314;49.248;6.968;2023-12-20T02:15:14;7.00;99.90
27978;DHT22;15314;49.248;6.968;2023-12-20T02:16:14;7.10;99.90
27978;DHT22;15314;49.248;6.968;2023-12-20T02:17:16;7.10;99.90
27978;DHT22;15314;49.248;6.968;2023-12-20T02:18:16;7.10;99.90
27978;DHT22;15314;49.248;6.968;2023-12-20T02:19:17;7.20;99.90
27978;DHT22;15314;49.248;6.968;2023-12-20T02:20:20;7.20;99.90
27978;DHT22;15314;49.248;6.968;2023-12-20T02:21:33;7.10;99.90
27978;DHT22;15314;49.248;6.968;2023-12-20T02:22:36;7.10;99.90
27978;DHT22;15314;49.248;6.968;2023-12-20T02:23:37;7.00;99.90
27978;DHT22;15314;49.248;6.968;2023-12-20T02:24:38;7.00;99.90
27978;DHT22;15314;49.248;6.968;2023-12-20T02:25:39;7.00;99.90
27978;DHT22;15314;49.248;6.968;2023-12-20T02:26:40;6.90;99.90
27978;DHT22;15314;49.248;6.968;2023-12-20T02:27:41;7.00;99.90
27978;DHT22;15314;49.248;6.968;2023-12-20T02:28:42;7.00;99.90
27978;DHT22;15314;49.248;6.968;2023-12-20T02:29:42;7.00;99.90
27978;DHT22;15314;49.248;6.968;2023-12-20T02:30:43;6.90;99.90
27978;DHT22;15314;49.248;6.968;2023-12-20T02:31:44;6.90;99.90
27978;DHT22;15314;49.248;6.968;2023-12-20T02:32:44;6.90;99.90
27978;DHT22;15314;49.248;6.968;2023-12-20T02:33:45;6.80;99.90
27978;DHT22;15314;49.248;6.968;2023-12-20T02:34:47;6.80;99.90
27978;DHT22;15314;49.248;6.968;2023-12-20T02:35:48;6.70;99.90
27978;DHT22;15314;49.248;6.968;2023-12-20T02:36:49;6.80;99.90
27978;DHT22;15314;49.248;6.968;2023-12-20T02:37:49;6.70;99.90
27978;DHT22;15314;49.248;6.968;2023-12-20T02:38:50;6.70;99.90
27978;DHT22;15314;49.248;6.968;2023-12-20T02:39:51;6.70;99.90
27978;DHT22;15314;49.248;6.968;2023-12-20T02:40:51;6.80;99.90
27978;DHT22;15314;49.248;6.968;2023-12-20T02:41:52;6.80;99.90
27978;DHT22;15314;49.248;6.968;2023-12-20T02:42:52;6.90;99.90
27978;DHT22;15314;49.248;6.968;2023-12-20T02:43:53;6.90;99.90
27978;DHT22;15314;49.248;6.968;2023-12-20T02:44:54;7.00;99.90
27978;DHT22;15314;49.248;6.968;2023-12-20T02:45:54;7.00;99.90
27978;DHT22;15314;49.248;6.968;2023-12-20T02:46:55;7.00;99.90
27978;DHT22;15314;49.248;6.968;2023-12-20T02:47:56;7.00;99.90
27978;DHT22;15314;49.248;6.968;2023-12-20T02:48:56;7.00;99.90
27978;DHT22;15314;49.248;6.968;2023-12-20T02:49:57;7.00;99.90
27978;DHT22;15314;49.248;6.968;2023-12-20T02:50:57;7.10;99.90
27978;DHT22;15314;49.248;6.968;2023-12-20T02:51:58;7.10;99.90
27978;DHT22;15314;49.248;6.968;2023-12-20T02:52:59;7.10;99.90
27978;DHT22;15314;49.248;6.968;2023-12-20T02:53:59;7.20;99.90
27978;DHT22;15314;49.248;6.968;2023-12-20T02:55:00;7.20;99.90
27978;DHT22;15314;49.248;6.968;2023-12-20T02:56:00;7.20;99.90
27978;DHT22;15314;49.248;6.968;2023-12-20T02:57:01;7.20;99.90
27978;DHT22;15314;49.248;6.968;2023-12-20T02:58:02;7.20;99.90
27978;DHT22;15314;49.248;6.968;2023-12-20T02:59:03;7.20;99.90
27978;DHT22;15314;49.248;6.968;2023-12-20T03:00:06;7.20;99.90
27978;DHT22;15314;49.248;6.968;2023-12-20T03:01:08;7.20;99.90
27978;DHT22;15314;49.248;6.968;2023-12-20T03:02:08;7.20;99.90
27978;DHT22;15314;49.248;6.968;2023-12-20T03:03:09;7.20;99.90
27978;DHT22;15314;49.248;6.968;2023-12-20T03:04:10;7.20;99.90
27978;DHT22;15314;49.248;6.968;2023-12-20T03:05:11;7.20;99.90
27978;DHT22;15314;49.248;6.968;2023-12-20T03:06:15;7.30;99.90
27978;DHT22;15314;49.248;6.968;2023-12-20T03:07:15;7.20;99.90
27978;DHT22;15314;49.248;6.968;2023-12-20T03:08:16;7.20;99.90
27978;DHT22;15314;49.248;6.968;2023-12-20T03:09:17;7.20;99.90
27978;DHT22;15314;49.248;6.968;2023-12-20T03:10:18;7.20;99.90
27978;DHT22;15314;49.248;6.968;2023-12-20T03:11:19;7.10;99.90
27978;DHT22;15314;49.248;6.968;2023-12-20T03:12:20;7.10;99.90
27978;DHT22;15314;49.248;6.968;2023-12-20T03:13:20;7.10;99.90
27978;DHT22;15314;49.248;6.968;2023-12-20T03:14:21;7.10;99.90
27978;DHT22;15314;49.248;6.968;2023-12-20T03:15:21;7.10;99.90
27978;DHT22;15314;49.248;6.968;2023-12-20T03:16:22;7.20;99.90
27978;DHT22;15314;49.248;6.968;2023-12-20T03:17:23;7.20;99.90
27978;DHT22;15314;49.248;6.968;2023-12-20T03:18:24;7.20;99.90
27978;DHT22;15314;49.248;6.968;2023-12-20T03:19:24;7.20;99.90
27978;DHT22;15314;49.248;6.968;2023-12-20T03:20:25;7.30;99.90
27978;DHT22;15314;49.248;6.968;2023-12-20T03:21:26;7.40;99.90
27978;DHT22;15314;49.248;6.968;2023-12-20T03:22:27;7.40;99.90
27978;DHT22;15314;49.248;6.968;2023-12-20T03:23:29;7.40;99.90
27978;DHT22;15314;49.248;6.968;2023-12-20T03:24:30;7.40;99.90
27978;DHT22;15314;49.248;6.968;2023-12-20T03:25:31;7.40;99.90
27978;DHT22;15314;49.248;6.968;2023-12-20T03:26:32;7.50;99.90
27978;DHT22;15314;49.248;6.968;2023-12-20T03:27:32;7.50;99.90
27978;DHT22;15314;49.248;6.968;2023-12-20T03:28:33;7.50;99.90
27978;DHT22;15314;49.248;6.968;2023-12-20T03:29:34;7.50;99.90
27978;DHT22;15314;49.248;6.968;2023-12-20T03:30:35;7.50;99.90
27978;DHT22;15314;49.248;6.968;2023-12-20T03:31:35;7.50;99.90
27978;DHT22;15314;49.248;6.968;2023-12-20T03:32:38;7.50;99.90
27978;DHT22;15314;49.248;6.968;2023-12-20T03:33:38;7.60;99.90
27978;DHT22;15314;49.248;6.968;2023-12-20T03:34:39;7.60;99.90
27978;DHT22;15314;49.248;6.968;2023-12-20T03:35:40;7.60;99.90
27978;DHT22;15314;49.248;6.968;2023-12-20T03:36:40;7.60;99.90
27978;DHT22;15314;49.248;6.968;2023-12-20T03:37:41;7.50;99.90
27978;DHT22;15314;49.248;6.968;2023-12-20T03:38:42;7.60;99.90
27978;DHT22;15314;49.248;6.968;2023-12-20T03:39:42;7.60;99.90
27978;DHT22;15314;49.248;6.968;2023-12-20T03:40:43;7.70;99.90
27978;DHT22;15314;49.248;6.968;2023-12-20T03:41:43;7.60;99.90
27978;DHT22;15314;49.248;6.968;2023-12-20T03:42:44;7.60;99.90
27978;DHT22;15314;49.248;6.968;2023-12-20T03:43:45;7.70;99.90
27978;DHT22;15314;49.248;6.968;2023-12-20T03:44:45;7.70;99.90
27978;DHT22;15314;49.248;6.968;2023-12-20T03:45:46;7.60;99.90
27978;DHT22;15314;49.248;6.968;2023-12-20T03:46:46;7.60;99.90
27978;DHT22;15314;49.248;6.968;2023-12-20T03:47:49;7.60;99.90
27978;DHT22;15314;49.248;6.968;2023-12-20T03:48:50;7.60;99.90
27978;DHT22;15314;49.248;6.968;2023-12-20T03:49:50;7.70;99.90
27978;DHT22;15314;49.248;6.968;2023-12-20T03:50:51;7.70;99.90
27978;DHT22;15314;49.248;6.968;2023-12-20T03:51:52;7.70;99.90
27978;DHT22;15314;49.248;6.968;2023-12-20T03:52:52;7.60;99.90
27978;DHT22;15314;49.248;6.968;2023-12-20T03:53:53;7.60;99.90
27978;DHT22;15314;49.248;6.968;2023-12-20T03:54:54;7.50;99.90
27978;DHT22;15314;49.248;6.968;2023-12-20T03:55:54;7.50;99.90
27978;DHT22;15314;49.248;6.968;2023-12-20T03:56:55;7.40;99.90
27978;DHT22;15314;49.248;6.968;2023-12-20T03:57:55;7.40;99.90
27978;DHT22;15314;49.248;6.968;2023-12-20T03:58:56;7.40;99.90
27978;DHT22;15314;49.248;6.968;2023-12-20T03:59:57;7.30;99.90
27978;DHT22;15314;49.248;6.968;2023-12-20T04:00:57;7.30;99.90
27978;DHT22;15314;49.248;6.968;2023-12-20T04:01:58;7.30;99.90
27978;DHT22;15314;49.248;6.968;2023-12-20T04:02:58;7.20;99.90
27978;DHT22;15314;49.248;6.968;2023-12-20T04:03:59;7.20;99.90
27978;DHT22;15314;49.248;6.968;2023-12-20T04:04:59;7.30;99.90
27978;DHT22;15314;49.248;6.968;2023-12-20T04:06:00;7.30;99.90
27978;DHT22;15314;49.248;6.968;2023-12-20T04:07:01;7.30;99.90
27978;DHT22;15314;49.248;6.968;2023-12-20T04:08:02;7.40;99.90
27978;DHT22;15314;49.248;6.968;2023-12-20T04:09:03;7.40;99.90
27978;DHT22;15314;49.248;6.968;2023-12-20T04:10:04;7.40;99.90
27978;DHT22;15314;49.248;6.968;2023-12-20T04:11:05;7.50;99.90
27978;DHT22;15314;49.248;6.968;2023-12-20T04:12:06;7.50;99.90
27978;DHT22;15314;49.248;6.968;2023-12-20T04:13:07;7.40;99.90
27978;DHT22;15314;49.248;6.968;2023-12-20T04:14:08;7.40;99.90
27978;DHT22;15314;49.248;6.968;2023-12-20T04:15:09;7.40;99.90
27978;DHT22;15314;49.248;6.968;2023-12-20T04:16:10;7.40;99.90
27978;DHT22;15314;49.248;6.968;2023-12-20T04:17:11;7.50;99.90
27978;DHT22;15314;49.248;6.968;2023-12-20T04:18:11;7.40;99.90
27978;DHT22;15314;49.248;6.968;2023-12-20T04:19:12;7.40;99.90
27978;DHT22;15314;49.248;6.968;2023-12-20T04:20:13;7.50;99.90
27978;DHT22;15314;49.248;6.968;2023-12-20T04:21:13;7.60;99.90
27978;DHT22;15314;49.248;6.968;2023-12-20T04:22:14;7.60;99.90
27978;DHT22;15314;49.248;6.968;2023-12-20T04:23:14;7.70;99.90
27978;DHT22;15314;49.248;6.968;2023-12-20T04:24:15;7.70;99.90
27978;DHT22;15314;49.248;6.968;2023-12-20T04:25:16;7.70;99.90
27978;DHT22;15314;49.248;6.968;2023-12-20T04:26:16;7.70;99.90
27978;DHT22;15314;49.248;6.968;2023-12-20T04:27:17;7.70;99.90
27978;DHT22;15314;49.248;6.968;2023-12-20T04:28:17;7.70;99.90
27978;DHT22;15314;49.248;6.968;2023-12-20T04:29:18;7.70;99.90
27978;DHT22;15314;49.248;6.968;2023-12-20T04:30:19;7.70;99.90
27978;DHT22;15314;49.248;6.968;2023-12-20T04:31:19;7.70;99.90
27978;DHT22;15314;49.248;6.968;2023-12-20T04:32:20;7.80;99.90
27978;DHT22;15314;49.248;6.968;2023-12-20T04:33:20;7.80;99.90
27978;DHT22;15314;49.248;6.968;2023-12-20T04:34:22;7.80;99.90
27978;DHT22;15314;49.248;6.968;2023-12-20T04:35:23;7.70;99.90
27978;DHT22;15314;49.248;6.968;2023-12-20T04:36:24;7.50;99.90
27978;DHT22;15314;49.248;6.968;2023-12-20T04:37:27;7.50;99.90
27978;DHT22;15314;49.248;6.968;2023-12-20T04:38:27;7.40;99.90
27978;DHT22;15314;49.248;6.968;2023-12-20T04:39:28;7.40;99.90
27978;DHT22;15314;49.248;6.968;2023-12-20T04:40:29;7.40;99.90
27978;DHT22;15314;49.248;6.968;2023-12-20T04:41:30;7.30;99.90
27978;DHT22;15314;49.248;6.968;2023-12-20T04:42:30;7.30;99.90
27978;DHT22;15314;49.248;6.968;2023-12-20T04:43:31;7.40;99.90
27978;DHT22;15314;49.248;6.968;2023-12-20T04:44:31;7.30;99.90
27978;DHT22;15314;49.248;6.968;2023-12-20T04:45:32;7.20;99.90
27978;DHT22;15314;49.248;6.968;2023-12-20T04:46:32;7.20;99.90
27978;DHT22;15314;49.248;6.968;2023-12-20T04:47:33;7.20;99.90
27978;DHT22;15314;49.248;6.968;2023-12-20T04:48:34;7.20;99.90
27978;DHT22;15314;49.248;6.968;2023-12-20T04:49:34;7.20;99.90
27978;DHT22;15314;49.248;6.968;2023-12-20T04:50:35;7.20;99.90
27978;DHT22;15314;49.248;6.968;2023-12-20T04:51:36;7.20;99.90
27978;DHT22;15314;49.248;6.968;2023-12-20T04:52:36;7.20;99.90
27978;DHT22;15314;49.248;6.968;2023-12-20T04:53:37;7.10;99.90
27978;DHT22;15314;49.248;6.968;2023-12-20T04:54:37;7.10;99.90
27978;DHT22;15314;49.248;6.968;2023-12-20T04:55:38;7.20;99.90
27978;DHT22;15314;49.248;6.968;2023-12-20T04:56:39;7.20;99.90
27978;DHT22;15314;49.248;6.968;2023-12-20T04:57:40;7.20;99.90
27978;DHT22;15314;49.248;6.968;2023-12-20T04:58:42;7.20;99.90
27978;DHT22;15314;49.248;6.968;2023-12-20T04:59:42;7.10;99.90
27978;DHT22;15314;49.248;6.968;2023-12-20T05:00:43;7.20;99.90
27978;DHT22;15314;49.248;6.968;2023-12-20T05:01:43;7.20;99.90
27978;DHT22;15314;49.248;6.968;2023-12-20T05:02:44;7.10;99.90
27978;DHT22;15314;49.248;6.968;2023-12-20T05:03:45;6.90;99.90
27978;DHT22;15314;49.248;6.968;2023-12-20T05:04:45;6.80;99.90
27978;DHT22;15314;49.248;6.968;2023-12-20T05:05:46;6.70;99.90
27978;DHT22;15314;49.248;6.968;2023-12-20T05:06:47;6.60;99.90
27978;DHT22;15314;49.248;6.968;2023-12-20T05:07:47;6.50;99.90
27978;DHT22;15314;49.248;6.968;2023-12-20T05:08:48;6.50;99.90
27978;DHT22;15314;49.248;6.968;2023-12-20T05:09:48;6.40;99.90
27978;DHT22;15314;49.248;6.968;2023-12-20T05:10:49;6.20;99.90
27978;DHT22;15314;49.248;6.968;2023-12-20T05:11:50;6.20;99.90
27978;DHT22;15314;49.248;6.968;2023-12-20T05:12:50;6.20;99.90
27978;DHT22;15314;49.248;6.968;2023-12-20T05:13:51;6.20;99.90
27978;DHT22;15314;49.248;6.968;2023-12-20T05:14:52;6.20;99.90
27978;DHT22;15314;49.248;6.968;2023-12-20T05:15:52;6.20;99.90
27978;DHT22;15314;49.248;6.968;2023-12-20T05:16:53;6.10;99.90
27978;DHT22;15314;49.248;6.968;2023-12-20T05:17:54;6.10;99.90
27978;DHT22;15314;49.248;6.968;2023-12-20T05:18:54;5.90;99.90
27978;DHT22;15314;49.248;6.968;2023-12-20T05:19:55;5.90;99.90
27978;DHT22;15314;49.248;6.968;2023-12-20T05:20:55;5.90;99.90
27978;DHT22;15314;49.248;6.968;2023-12-20T05:21:56;5.80;99.90
27978;DHT22;15314;49.248;6.968;2023-12-20T05:22:56;5.80;99.90
27978;DHT22;15314;49.248;6.968;2023-12-20T05:23:57;5.80;99.90
27978;DHT22;15314;49.248;6.968;2023-12-20T05:24:58;5.80;99.90
27978;DHT22;15314;49.248;6.968;2023-12-20T05:25:58;5.70;99.90
27978;DHT22;15314;49.248;6.968;2023-12-20T05:26:59;5.70;99.90
27978;DHT22;15314;49.248;6.968;2023-12-20T05:28:00;5.70;99.90
27978;DHT22;15314;49.248;6.968;2023-12-20T05:29:00;5.60;99.90
27978;DHT22;15314;49.248;6.968;2023-12-20T05:30:01;5.70;99.90
27978;DHT22;15314;49.248;6.968;2023-12-20T05:31:02;5.70;99.90
27978;DHT22;15314;49.248;6.968;2023-12-20T05:32:04;5.70;99.90
27978;DHT22;15314;49.248;6.968;2023-12-20T05:33:07;5.70;99.90
27978;DHT22;15314;49.248;6.968;2023-12-20T05:34:08;5.70;99.90
27978;DHT22;15314;49.248;6.968;2023-12-20T05:35:09;5.70;99.90
27978;DHT22;15314;49.248;6.968;2023-12-20T05:36:09;5.80;99.90
27978;DHT22;15314;49.248;6.968;2023-12-20T05:37:11;5.80;99.90
27978;DHT22;15314;49.248;6.968;2023-12-20T05:38:12;5.90;99.90
27978;DHT22;15314;49.248;6.968;2023-12-20T05:39:15;5.90;99.90
27978;DHT22;15314;49.248;6.968;2023-12-20T05:40:16;6.00;99.90
27978;DHT22;15314;49.248;6.968;2023-12-20T05:41:17;6.00;99.90
27978;DHT22;15314;49.248;6.968;2023-12-20T05:42:17;6.00;99.90
27978;DHT22;15314;49.248;6.968;2023-12-20T05:43:18;6.00;99.90
27978;DHT22;15314;49.248;6.968;2023-12-20T05:44:20;6.00;99.90
27978;DHT22;15314;49.248;6.968;2023-12-20T05:45:20;6.00;99.90
27978;DHT22;15314;49.248;6.968;2023-12-20T05:46:21;6.00;99.90
27978;DHT22;15314;49.248;6.968;2023-12-20T05:47:22;5.90;99.90
27978;DHT22;15314;49.248;6.968;2023-12-20T05:48:22;6.00;99.90
27978;DHT22;15314;49.248;6.968;2023-12-20T05:49:23;6.00;99.90
27978;DHT22;15314;49.248;6.968;2023-12-20T05:50:24;6.00;99.90
27978;DHT22;15314;49.248;6.968;2023-12-20T05:51:24;6.00;99.90
27978;DHT22;15314;49.248;6.968;2023-12-20T05:52:25;6.00;99.90
27978;DHT22;15314;49.248;6.968;2023-12-20T05:53:25;6.10;99.90
27978;DHT22;15314;49.248;6.968;2023-12-20T05:54:26;6.10;99.90
27978;DHT22;15314;49.248;6.968;2023-12-20T05:55:27;6.10;99.90
27978;DHT22;15314;49.248;6.968;2023-12-20T05:56:27;6.10;99.90
27978;DHT22;15314;49.248;6.968;2023-12-20T05:57:28;6.10;99.90
27978;DHT22;15314;49.248;6.968;2023-12-20T05:58:28;6.20;99.90
27978;DHT22;15314;49.248;6.968;2023-12-20T05:59:29;6.20;99.90
27978;DHT22;15314;49.248;6.968;2023-12-20T06:00:30;6.10;99.90
27978;DHT22;15314;49.248;6.968;2023-12-20T06:01:30;6.20;99.90
27978;DHT22;15314;49.248;6.968;2023-12-20T06:02:31;6.10;99.90
27978;DHT22;15314;49.248;6.968;2023-12-20T06:03:33;6.00;99.90
27978;DHT22;15314;49.248;6.968;2023-12-20T06:04:33;6.00;99.90
27978;DHT22;15314;49.248;6.968;2023-12-20T06:05:34;5.90;99.90
27978;DHT22;15314;49.248;6.968;2023-12-20T06:06:39;5.90;99.90
27978;DHT22;15314;49.248;6.968;2023-12-20T06:07:40;5.80;99.90
27978;DHT22;15314;49.248;6.968;2023-12-20T06:08:41;5.80;99.90
27978;DHT22;15314;49.248;6.968;2023-12-20T06:09:41;5.80;99.90
27978;DHT22;15314;49.248;6.968;2023-12-20T06:10:42;5.70;99.90
27978;DHT22;15314;49.248;6.968;2023-12-20T06:11:43;5.70;99.90
27978;DHT22;15314;49.248;6.968;2023-12-20T06:12:43;5.70;99.90
27978;DHT22;15314;49.248;6.968;2023-12-20T06:13:44;5.70;99.90
27978;DHT22;15314;49.248;6.968;2023-12-20T06:14:44;5.60;99.90
27978;DHT22;15314;49.248;6.968;2023-12-20T06:15:45;5.60;99.90
27978;DHT22;15314;49.248;6.968;2023-12-20T06:16:46;5.60;99.90
27978;DHT22;15314;49.248;6.968;2023-12-20T06:17:46;5.60;99.90
27978;DHT22;15314;49.248;6.968;2023-12-20T06:18:47;5.60;99.90
27978;DHT22;15314;49.248;6.968;2023-12-20T06:19:48;5.50;99.90
27978;DHT22;15314;49.248;6.968;2023-12-20T06:20:48;5.50;99.90
27978;DHT22;15314;49.248;6.968;2023-12-20T06:21:49;5.50;99.90
27978;DHT22;15314;49.248;6.968;2023-12-20T06:22:50;5.50;99.90
27978;DHT22;15314;49.248;6.968;2023-12-20T06:23:50;5.50;99.90
27978;DHT22;15314;49.248;6.968;2023-12-20T06:24:51;5.50;99.90
27978;DHT22;15314;49.248;6.968;2023-12-20T06:25:51;5.50;99.90
27978;DHT22;15314;49.248;6.968;2023-12-20T06:26:52;5.50;99.90
27978;DHT22;15314;49.248;6.968;2023-12-20T06:27:53;5.50;99.90
27978;DHT22;15314;49.248;6.968;2023-12-20T06:28:53;5.50;99.90
27978;DHT22;15314;49.248;6.968;2023-12-20T06:29:55;5.50;99.90